Eleonora E — MEDD4 — position and weather

sailwx.info

Track history (hours):
 
Tides and Currents Weather Stations Pressure Air Temp Water Temp Dewpoint Dewpoint Depression Visibility Wind Speed Wind Dir Waves Ship Positions

Eleonora E

Last reported at 2018-Feb-23 20:30 UTC. Time now 2018-Feb-23 20:46 UTC.
Position N 16°39' W 062°07'.

Length 35 m; draft 5.4 m.

Type: Sailing vessel. MMSI: 235008680.

Date/timePositionNaut miles runAvg speedWind from/ knotsBaromVisibWave heightAir tempDewpointWater temp
2018-Feb-23 20:30N 16°39' W 062°07'4 7.0
2018-Feb-23 20:00N 16°36' W 062°07'2 3.5
2018-Feb-23 19:29N 16°34' W 062°08'2 5.1
2018-Feb-23 19:00N 16°36' W 062°10'3 5.2
2018-Feb-23 18:30N 16°37' W 062°12'8 8.1
2018-Feb-23 17:31N 16°44' W 062°17'1 8.1
2018-Feb-23 17:27N 16°44' W 062°18'4 8.9
2018-Feb-23 16:59N 16°47' W 062°20'  
2018-Feb-19 21:07N 17°31' W 062°34'212.8
2018-Feb-19 20:57N 17°30' W 062°32'611.9
2018-Feb-19 20:29N 17°25' W 062°29'612.4
2018-Feb-19 20:00N 17°21' W 062°25'612.0
2018-Feb-19 19:30N 17°16' W 062°21'612.6
2018-Feb-19 19:00N 17°12' W 062°16'612.2
2018-Feb-19 18:30N 17°07' W 062°11'612.7
2018-Feb-19 18:00N 17°03' W 062°06'612.3
2018-Feb-19 17:30N 16°60' W 062°01'611.8
2018-Feb-19 17:00N 16°55' W 061°57'612.5
2018-Feb-19 16:30N 16°51' W 061°52'5 9.8
2018-Feb-19 16:00N 16°55' W 061°48'5 9.0
2018-Feb-19 15:28N 16°60' W 061°47'0 0.4
2018-Feb-19 14:59N 16°60' W 061°47'1 2.5
2018-Feb-19 14:30N 17°01' W 061°46'0 0.0
2018-Feb-18 11:52N 17°01' W 061°46'0 0.0
2018-Feb-18 11:28N 17°01' W 061°46'0 0.0
2018-Feb-18 10:58N 17°01' W 061°46'0 0.0
2018-Feb-18 10:28N 17°01' W 061°46'0 0.0
2018-Feb-18 09:58N 17°01' W 061°46'0 0.0
2018-Feb-18 09:28N 17°01' W 061°46'0 0.0
2018-Feb-18 08:58N 17°01' W 061°46'0 0.0
2018-Feb-18 08:28N 17°01' W 061°46'0 0.0
2018-Feb-18 07:58N 17°01' W 061°46'0 0.0
2018-Feb-18 07:28N 17°01' W 061°46'0 0.0
2018-Feb-18 06:58N 17°01' W 061°46'0 0.0
2018-Feb-18 06:28N 17°01' W 061°46'0 0.0
2018-Feb-18 05:58N 17°01' W 061°46'0 0.0
2018-Feb-18 05:28N 17°01' W 061°46'0 0.0
2018-Feb-18 04:58N 17°01' W 061°46'0 0.0
2018-Feb-18 04:28N 17°01' W 061°46'0 0.0
2018-Feb-18 03:58N 17°01' W 061°46'0 0.0
2018-Feb-18 03:28N 17°01' W 061°46'0 0.0
2018-Feb-18 02:58N 17°01' W 061°46'0 0.0
2018-Feb-18 02:28N 17°01' W 061°46'0 0.0
2018-Feb-18 01:58N 17°01' W 061°46'0 0.0
2018-Feb-18 01:28N 17°01' W 061°46'0 0.0
2018-Feb-18 00:58N 17°01' W 061°46'0 0.0
2018-Feb-18 00:28N 17°01' W 061°46'0 0.0
2018-Feb-17 23:58N 17°01' W 061°46'0 0.0
2018-Feb-17 23:28N 17°01' W 061°46'0 0.0
2018-Feb-17 22:58N 17°01' W 061°46'0 0.0
2018-Feb-17 22:28N 17°01' W 061°46'0 0.0
2018-Feb-17 21:58N 17°01' W 061°46'0 0.0
2018-Feb-17 21:28N 17°01' W 061°46'0 0.0
2018-Feb-17 20:58N 17°01' W 061°46'0 0.0
2018-Feb-17 20:28N 17°01' W 061°46'0 0.0
2018-Feb-17 19:58N 17°01' W 061°46'0 0.0
2018-Feb-17 19:28N 17°01' W 061°46'0 0.0
2018-Feb-17 18:58N 17°01' W 061°46'0 0.0
2018-Feb-17 18:28N 17°01' W 061°46'0 0.0
2018-Feb-17 17:58N 17°01' W 061°46'0 0.0
2018-Feb-17 17:28N 17°01' W 061°46'0 0.0
2018-Feb-17 16:58N 17°01' W 061°46'0 0.0
2018-Feb-17 16:28N 17°01' W 061°46'0 0.0
2018-Feb-17 15:58N 17°01' W 061°46'0 0.0
2018-Feb-17 15:28N 17°01' W 061°46'0 0.0
2018-Feb-17 14:58N 17°01' W 061°46'0 0.0
2018-Feb-17 14:28N 17°01' W 061°46'0 0.0
2018-Feb-17 13:58N 17°01' W 061°46'0 0.0
2018-Feb-17 13:28N 17°01' W 061°46'0 0.0
2018-Feb-17 12:58N 17°01' W 061°46'0 0.0
2018-Feb-17 12:28N 17°01' W 061°46'0 0.0
2018-Feb-17 11:58N 17°01' W 061°46'0 0.0
2018-Feb-17 11:28N 17°01' W 061°46'0 0.0
2018-Feb-17 10:58N 17°01' W 061°46'0 0.0
2018-Feb-17 10:28N 17°01' W 061°46'0 0.0
2018-Feb-17 09:58N 17°01' W 061°46'0 0.0
2018-Feb-17 09:28N 17°01' W 061°46'0 0.0
2018-Feb-17 08:58N 17°01' W 061°46'0 0.0
2018-Feb-17 08:28N 17°01' W 061°46'0 0.0
2018-Feb-17 07:58N 17°01' W 061°46'0 0.0
2018-Feb-17 07:28N 17°01' W 061°46'0 0.0
2018-Feb-17 06:58N 17°01' W 061°46'0 0.0
2018-Feb-17 06:28N 17°01' W 061°46'0 0.0
2018-Feb-17 05:58N 17°01' W 061°46'0 0.0
2018-Feb-17 05:28N 17°01' W 061°46'0 0.0
2018-Feb-17 04:58N 17°01' W 061°46'0 0.0
2018-Feb-17 04:28N 17°01' W 061°46'0 0.0
2018-Feb-17 03:58N 17°01' W 061°46'0 0.0
2018-Feb-17 03:28N 17°01' W 061°46'0 0.0
2018-Feb-17 02:58N 17°01' W 061°46'0 0.0
2018-Feb-17 02:28N 17°01' W 061°46'0 0.0
2018-Feb-17 01:58N 17°01' W 061°46'0 0.0
2018-Feb-17 01:28N 17°01' W 061°46'0 0.0
2018-Feb-17 00:58N 17°01' W 061°46'0 0.0
2018-Feb-17 00:28N 17°01' W 061°46'0 0.0
2018-Feb-16 23:58N 17°01' W 061°46'0 0.0
2018-Feb-16 23:28N 17°01' W 061°46'0 0.0
2018-Feb-16 22:58N 17°01' W 061°46'0 0.0
2018-Feb-16 22:28N 17°01' W 061°46'0 0.0
2018-Feb-16 21:58N 17°01' W 061°46'0 0.0
2018-Feb-16 21:28N 17°01' W 061°46'0 0.0
2018-Feb-16 21:01N 17°01' W 061°46'0 0.0
2018-Feb-16 20:28N 17°01' W 061°46'0 0.0
2018-Feb-16 19:58N 17°01' W 061°46'0 0.0
2018-Feb-16 19:28N 17°01' W 061°46'0 0.0
2018-Feb-16 19:01N 17°01' W 061°46'0 0.0
2018-Feb-16 18:28N 17°01' W 061°46'0 0.0
2018-Feb-16 17:58N 17°01' W 061°46'0 0.0
2018-Feb-16 17:28N 17°01' W 061°46'0 0.0
2018-Feb-16 16:58N 17°01' W 061°46'0 0.0
2018-Feb-16 16:25N 17°01' W 061°46'0 0.0
2018-Feb-16 15:58N 17°01' W 061°46'0 0.0
2018-Feb-16 15:28N 17°01' W 061°46'0 0.0
2018-Feb-16 15:01N 17°01' W 061°46'0 0.0
2018-Feb-16 14:28N 17°01' W 061°46'0 0.0
2018-Feb-16 14:01N 17°01' W 061°46'0 0.0
2018-Feb-16 13:30N 17°01' W 061°46'0 0.0
2018-Feb-16 13:01N 17°01' W 061°46'0 0.0
2018-Feb-16 12:31N 17°01' W 061°46'0 0.0
2018-Feb-16 11:58N 17°01' W 061°46'0 0.0
2018-Feb-16 11:28N 17°01' W 061°46'0 0.0
2018-Feb-16 10:58N 17°01' W 061°46'0 0.0
2018-Feb-16 10:31N 17°01' W 061°46'0 0.0
2018-Feb-16 09:58N 17°01' W 061°46'0 0.0
2018-Feb-16 09:27N 17°01' W 061°46'0 0.0
2018-Feb-16 08:57N 17°01' W 061°46'0 0.0
2018-Feb-16 08:27N 17°01' W 061°46'0 0.0
2018-Feb-16 08:01N 17°01' W 061°46'0 0.0
2018-Feb-16 07:28N 17°01' W 061°46'0 0.0
2018-Feb-16 06:57N 17°01' W 061°46'0 0.0
2018-Feb-16 06:31N 17°01' W 061°46'0 0.0
2018-Feb-16 06:00N 17°01' W 061°46'0 0.0
2018-Feb-16 05:31N 17°01' W 061°46'0 0.0
2018-Feb-16 04:54N 17°01' W 061°46'0 0.0
2018-Feb-16 04:30N 17°01' W 061°46'0 0.0
2018-Feb-16 04:00N 17°01' W 061°46'0 0.0
2018-Feb-16 03:30N 17°01' W 061°46'0 0.0
2018-Feb-16 03:01N 17°01' W 061°46'0 0.0
2018-Feb-16 02:30N 17°01' W 061°46'0 0.0
2018-Feb-16 02:00N 17°01' W 061°46'0 0.0
2018-Feb-16 01:30N 17°01' W 061°46'0 0.0
2018-Feb-16 01:00N 17°01' W 061°46'0 0.0
2018-Feb-16 00:31N 17°01' W 061°46'0 0.0
2018-Feb-16 00:00N 17°01' W 061°46'0 0.0
2018-Feb-15 23:30N 17°01' W 061°46'0 0.0
2018-Feb-15 23:00N 17°01' W 061°46'0 0.0
2018-Feb-15 22:31N 17°01' W 061°46'0 0.0
2018-Feb-15 22:00N 17°01' W 061°46'0 0.0
2018-Feb-15 21:30N 17°01' W 061°46'0 0.0
2018-Feb-15 21:01N 17°01' W 061°46'0 0.0
2018-Feb-15 20:30N 17°01' W 061°46'0 0.0
2018-Feb-15 20:00N 17°01' W 061°46'0 0.0
2018-Feb-15 19:30N 17°01' W 061°46'0 0.0
2018-Feb-15 19:00N 17°01' W 061°46'0 0.0
2018-Feb-15 18:30N 17°01' W 061°46'0 0.0
2018-Feb-15 18:00N 17°01' W 061°46'0 0.0
2018-Feb-15 17:30N 17°01' W 061°46'0 0.0
2018-Feb-15 17:00N 17°01' W 061°46'0 0.0
2018-Feb-15 16:30N 17°01' W 061°46'0 0.0
2018-Feb-15 16:00N 17°01' W 061°46'0 0.0
2018-Feb-15 15:30N 17°01' W 061°46'0 0.0
2018-Feb-15 15:00N 17°01' W 061°46'0 0.0
2018-Feb-15 14:30N 17°01' W 061°46'0 0.0
2018-Feb-15 14:00N 17°01' W 061°46'0 0.0
2018-Feb-15 13:30N 17°01' W 061°46'0 0.0
2018-Feb-15 13:00N 17°01' W 061°46'0 0.0
2018-Feb-15 12:30N 17°01' W 061°46'0 0.0
2018-Feb-15 12:00N 17°01' W 061°46'0 0.0
2018-Feb-15 11:30N 17°01' W 061°46'0 0.0
2018-Feb-15 11:00N 17°01' W 061°46'0 0.0
2018-Feb-15 10:30N 17°01' W 061°46'0 0.0
2018-Feb-15 10:00N 17°01' W 061°46'0 0.0
2018-Feb-15 09:30N 17°01' W 061°46'0 0.0
2018-Feb-15 09:00N 17°01' W 061°46'0 0.0
2018-Feb-15 08:30N 17°01' W 061°46'0 0.0
2018-Feb-15 08:00N 17°01' W 061°46'0 0.0
2018-Feb-15 07:30N 17°01' W 061°46'0 0.0
2018-Feb-15 07:00N 17°01' W 061°46'0 0.0
2018-Feb-15 06:24N 17°01' W 061°46'0 0.0
2018-Feb-15 06:00N 17°01' W 061°46'0 0.0
2018-Feb-15 05:30N 17°01' W 061°46'0 0.0
2018-Feb-15 05:00N 17°01' W 061°46'0 0.0
2018-Feb-15 04:18N 17°01' W 061°46'0 0.0
2018-Feb-15 04:00N 17°01' W 061°46'0 0.0
2018-Feb-15 03:30N 17°01' W 061°46'0 0.0
2018-Feb-15 03:00N 17°01' W 061°46'0 0.0
2018-Feb-15 02:30N 17°01' W 061°46'0 0.0
2018-Feb-15 02:00N 17°01' W 061°46'0 0.0
2018-Feb-15 01:30N 17°01' W 061°46'0 0.0
2018-Feb-15 01:00N 17°01' W 061°46'0 0.0
2018-Feb-15 00:30N 17°01' W 061°46'0 0.0
2018-Feb-15 00:00N 17°01' W 061°46'0 0.0
2018-Feb-14 23:30N 17°01' W 061°46'0 0.0
2018-Feb-14 23:00N 17°01' W 061°46'0 0.0
2018-Feb-14 22:30N 17°01' W 061°46'0 0.0
2018-Feb-14 22:00N 17°01' W 061°46'0 0.0
2018-Feb-14 21:30N 17°01' W 061°46'0 0.0
2018-Feb-14 21:00N 17°01' W 061°46'0 0.0
2018-Feb-14 20:30N 17°01' W 061°46'0 0.0
2018-Feb-14 20:00N 17°01' W 061°46'0 0.0
2018-Feb-14 19:30N 17°01' W 061°46'0 0.0
2018-Feb-14 19:00N 17°01' W 061°46'0 0.0
2018-Feb-14 18:30N 17°01' W 061°46'0 0.0
2018-Feb-14 18:00N 17°01' W 061°46'0 0.0
2018-Feb-14 17:30N 17°01' W 061°46'0 0.0
2018-Feb-14 17:00N 17°01' W 061°46'0 0.0
2018-Feb-14 16:30N 17°01' W 061°46'0 0.0
2018-Feb-14 16:00N 17°01' W 061°46'0 0.0
2018-Feb-14 15:30N 17°01' W 061°46'0 0.0
2018-Feb-14 15:00N 17°01' W 061°46'0 0.0
2018-Feb-14 14:30N 17°01' W 061°46'0 0.0
2018-Feb-14 14:00N 17°01' W 061°46'0 0.0
2018-Feb-14 13:30N 17°01' W 061°46'0 0.0
2018-Feb-14 13:00N 17°01' W 061°46'0 0.0
2018-Feb-14 12:30N 17°01' W 061°46'0 0.0
2018-Feb-14 12:00N 17°01' W 061°46'0 0.0
2018-Feb-14 11:30N 17°01' W 061°46'0 0.0
2018-Feb-14 10:57N 17°01' W 061°46'0 0.0
2018-Feb-14 10:27N 17°01' W 061°46'0 0.0
2018-Feb-14 10:00N 17°01' W 061°46'0 0.0
2018-Feb-14 09:30N 17°01' W 061°46'0 0.0
2018-Feb-14 09:00N 17°01' W 061°46'0 0.0
2018-Feb-14 08:30N 17°01' W 061°46'0 0.0
2018-Feb-14 08:00N 17°01' W 061°46'0 0.0
2018-Feb-14 07:30N 17°01' W 061°46'0 0.0
2018-Feb-14 07:00N 17°01' W 061°46'0 0.0
2018-Feb-14 06:30N 17°01' W 061°46'0 0.0
2018-Feb-14 06:00N 17°01' W 061°46'0 0.0
2018-Feb-14 05:30N 17°01' W 061°46'0 0.0
2018-Feb-14 05:00N 17°01' W 061°46'0 0.0
2018-Feb-14 04:27N 17°01' W 061°46'0 0.0
2018-Feb-14 04:00N 17°01' W 061°46'0 0.0
2018-Feb-14 03:30N 17°01' W 061°46'0 0.0
2018-Feb-14 03:00N 17°01' W 061°46'0 0.0
2018-Feb-14 02:27N 17°01' W 061°46'0 0.0
2018-Feb-14 02:00N 17°01' W 061°46'0 0.0
2018-Feb-14 01:30N 17°01' W 061°46'0 0.0
2018-Feb-14 01:00N 17°01' W 061°46'0 0.0
2018-Feb-14 00:30N 17°01' W 061°46'0 0.0
2018-Feb-14 00:00N 17°01' W 061°46'0 0.0
2018-Feb-13 23:30N 17°01' W 061°46'0 0.0
2018-Feb-13 23:00N 17°01' W 061°46'0 0.0
2018-Feb-13 22:30N 17°01' W 061°46'0 0.0
2018-Feb-13 22:00N 17°01' W 061°46'0 0.0
2018-Feb-13 21:30N 17°01' W 061°46'0 0.0
2018-Feb-13 21:00N 17°01' W 061°46'  
Track history (hours):
 
Tides and Currents Weather Stations Pressure Air Temp Water Temp Dewpoint Dewpoint Depression Visibility Wind Speed Wind Dir Waves Ship Positions

Eleonora E

Last reported at 2018-Feb-23 20:30 UTC. Time now 2018-Feb-23 20:46 UTC.
Position N 16°39' W 062°07'.

Length 35 m; draft 5.4 m.

Type: Sailing vessel. MMSI: 235008680.

Date/timePositionNaut miles runAvg speedWind from/ knotsBaromVisibWave heightAir tempDewpointWater temp
2018-Feb-23 20:30N 16°39' W 062°07'4 7.0
2018-Feb-23 20:00N 16°36' W 062°07'2 3.5
2018-Feb-23 19:29N 16°34' W 062°08'2 5.1
2018-Feb-23 19:00N 16°36' W 062°10'3 5.2
2018-Feb-23 18:30N 16°37' W 062°12'8 8.1
2018-Feb-23 17:31N 16°44' W 062°17'1 8.1
2018-Feb-23 17:27N 16°44' W 062°18'4 8.9
2018-Feb-23 16:59N 16°47' W 062°20'  
2018-Feb-19 21:07N 17°31' W 062°34'212.8
2018-Feb-19 20:57N 17°30' W 062°32'611.9
2018-Feb-19 20:29N 17°25' W 062°29'612.4
2018-Feb-19 20:00N 17°21' W 062°25'612.0
2018-Feb-19 19:30N 17°16' W 062°21'612.6
2018-Feb-19 19:00N 17°12' W 062°16'612.2
2018-Feb-19 18:30N 17°07' W 062°11'612.7
2018-Feb-19 18:00N 17°03' W 062°06'612.3
2018-Feb-19 17:30N 16°60' W 062°01'611.8
2018-Feb-19 17:00N 16°55' W 061°57'612.5
2018-Feb-19 16:30N 16°51' W 061°52'5 9.8
2018-Feb-19 16:00N 16°55' W 061°48'5 9.0
2018-Feb-19 15:28N 16°60' W 061°47'0 0.4
2018-Feb-19 14:59N 16°60' W 061°47'1 2.5
2018-Feb-19 14:30N 17°01' W 061°46'0 0.0
2018-Feb-18 11:52N 17°01' W 061°46'0 0.0
2018-Feb-18 11:28N 17°01' W 061°46'0 0.0
2018-Feb-18 10:58N 17°01' W 061°46'0 0.0
2018-Feb-18 10:28N 17°01' W 061°46'0 0.0
2018-Feb-18 09:58N 17°01' W 061°46'0 0.0
2018-Feb-18 09:28N 17°01' W 061°46'0 0.0
2018-Feb-18 08:58N 17°01' W 061°46'0 0.0
2018-Feb-18 08:28N 17°01' W 061°46'0 0.0
2018-Feb-18 07:58N 17°01' W 061°46'0 0.0
2018-Feb-18 07:28N 17°01' W 061°46'0 0.0
2018-Feb-18 06:58N 17°01' W 061°46'0 0.0
2018-Feb-18 06:28N 17°01' W 061°46'0 0.0
2018-Feb-18 05:58N 17°01' W 061°46'0 0.0
2018-Feb-18 05:28N 17°01' W 061°46'0 0.0
2018-Feb-18 04:58N 17°01' W 061°46'0 0.0
2018-Feb-18 04:28N 17°01' W 061°46'0 0.0
2018-Feb-18 03:58N 17°01' W 061°46'0 0.0
2018-Feb-18 03:28N 17°01' W 061°46'0 0.0
2018-Feb-18 02:58N 17°01' W 061°46'0 0.0
2018-Feb-18 02:28N 17°01' W 061°46'0 0.0
2018-Feb-18 01:58N 17°01' W 061°46'0 0.0
2018-Feb-18 01:28N 17°01' W 061°46'0 0.0
2018-Feb-18 00:58N 17°01' W 061°46'0 0.0
2018-Feb-18 00:28N 17°01' W 061°46'0 0.0
2018-Feb-17 23:58N 17°01' W 061°46'0 0.0
2018-Feb-17 23:28N 17°01' W 061°46'0 0.0
2018-Feb-17 22:58N 17°01' W 061°46'0 0.0
2018-Feb-17 22:28N 17°01' W 061°46'0 0.0
2018-Feb-17 21:58N 17°01' W 061°46'0 0.0
2018-Feb-17 21:28N 17°01' W 061°46'0 0.0
2018-Feb-17 20:58N 17°01' W 061°46'0 0.0
2018-Feb-17 20:28N 17°01' W 061°46'0 0.0
2018-Feb-17 19:58N 17°01' W 061°46'0 0.0
2018-Feb-17 19:28N 17°01' W 061°46'0 0.0
2018-Feb-17 18:58N 17°01' W 061°46'0 0.0
2018-Feb-17 18:28N 17°01' W 061°46'0 0.0
2018-Feb-17 17:58N 17°01' W 061°46'0 0.0
2018-Feb-17 17:28N 17°01' W 061°46'0 0.0
2018-Feb-17 16:58N 17°01' W 061°46'0 0.0
2018-Feb-17 16:28N 17°01' W 061°46'0 0.0
2018-Feb-17 15:58N 17°01' W 061°46'0 0.0
2018-Feb-17 15:28N 17°01' W 061°46'0 0.0
2018-Feb-17 14:58N 17°01' W 061°46'0 0.0
2018-Feb-17 14:28N 17°01' W 061°46'0 0.0
2018-Feb-17 13:58N 17°01' W 061°46'0 0.0
2018-Feb-17 13:28N 17°01' W 061°46'0 0.0
2018-Feb-17 12:58N 17°01' W 061°46'0 0.0
2018-Feb-17 12:28N 17°01' W 061°46'0 0.0
2018-Feb-17 11:58N 17°01' W 061°46'0 0.0
2018-Feb-17 11:28N 17°01' W 061°46'0 0.0
2018-Feb-17 10:58N 17°01' W 061°46'0 0.0
2018-Feb-17 10:28N 17°01' W 061°46'0 0.0
2018-Feb-17 09:58N 17°01' W 061°46'0 0.0
2018-Feb-17 09:28N 17°01' W 061°46'0 0.0
2018-Feb-17 08:58N 17°01' W 061°46'0 0.0
2018-Feb-17 08:28N 17°01' W 061°46'0 0.0
2018-Feb-17 07:58N 17°01' W 061°46'0 0.0
2018-Feb-17 07:28N 17°01' W 061°46'0 0.0
2018-Feb-17 06:58N 17°01' W 061°46'0 0.0
2018-Feb-17 06:28N 17°01' W 061°46'0 0.0
2018-Feb-17 05:58N 17°01' W 061°46'0 0.0
2018-Feb-17 05:28N 17°01' W 061°46'0 0.0
2018-Feb-17 04:58N 17°01' W 061°46'0 0.0
2018-Feb-17 04:28N 17°01' W 061°46'0 0.0
2018-Feb-17 03:58N 17°01' W 061°46'0 0.0
2018-Feb-17 03:28N 17°01' W 061°46'0 0.0
2018-Feb-17 02:58N 17°01' W 061°46'0 0.0
2018-Feb-17 02:28N 17°01' W 061°46'0 0.0
2018-Feb-17 01:58N 17°01' W 061°46'0 0.0
2018-Feb-17 01:28N 17°01' W 061°46'0 0.0
2018-Feb-17 00:58N 17°01' W 061°46'0 0.0
2018-Feb-17 00:28N 17°01' W 061°46'0 0.0
2018-Feb-16 23:58N 17°01' W 061°46'0 0.0
2018-Feb-16 23:28N 17°01' W 061°46'0 0.0
2018-Feb-16 22:58N 17°01' W 061°46'0 0.0
2018-Feb-16 22:28N 17°01' W 061°46'0 0.0
2018-Feb-16 21:58N 17°01' W 061°46'0 0.0
2018-Feb-16 21:28N 17°01' W 061°46'0 0.0
2018-Feb-16 21:01N 17°01' W 061°46'0 0.0
2018-Feb-16 20:28N 17°01' W 061°46'0 0.0
2018-Feb-16 19:58N 17°01' W 061°46'0 0.0
2018-Feb-16 19:28N 17°01' W 061°46'0 0.0
2018-Feb-16 19:01N 17°01' W 061°46'0 0.0
2018-Feb-16 18:28N 17°01' W 061°46'0 0.0
2018-Feb-16 17:58N 17°01' W 061°46'0 0.0
2018-Feb-16 17:28N 17°01' W 061°46'0 0.0
2018-Feb-16 16:58N 17°01' W 061°46'0 0.0
2018-Feb-16 16:25N 17°01' W 061°46'0 0.0
2018-Feb-16 15:58N 17°01' W 061°46'0 0.0
2018-Feb-16 15:28N 17°01' W 061°46'0 0.0
2018-Feb-16 15:01N 17°01' W 061°46'0 0.0
2018-Feb-16 14:28N 17°01' W 061°46'0 0.0
2018-Feb-16 14:01N 17°01' W 061°46'0 0.0
2018-Feb-16 13:30N 17°01' W 061°46'0 0.0
2018-Feb-16 13:01N 17°01' W 061°46'0 0.0
2018-Feb-16 12:31N 17°01' W 061°46'0 0.0
2018-Feb-16 11:58N 17°01' W 061°46'0 0.0
2018-Feb-16 11:28N 17°01' W 061°46'0 0.0
2018-Feb-16 10:58N 17°01' W 061°46'0 0.0
2018-Feb-16 10:31N 17°01' W 061°46'0 0.0
2018-Feb-16 09:58N 17°01' W 061°46'0 0.0
2018-Feb-16 09:27N 17°01' W 061°46'0 0.0
2018-Feb-16 08:57N 17°01' W 061°46'0 0.0
2018-Feb-16 08:27N 17°01' W 061°46'0 0.0
2018-Feb-16 08:01N 17°01' W 061°46'0 0.0
2018-Feb-16 07:28N 17°01' W 061°46'0 0.0
2018-Feb-16 06:57N 17°01' W 061°46'0 0.0
2018-Feb-16 06:31N 17°01' W 061°46'0 0.0
2018-Feb-16 06:00N 17°01' W 061°46'0 0.0
2018-Feb-16 05:31N 17°01' W 061°46'0 0.0
2018-Feb-16 04:54N 17°01' W 061°46'0 0.0
2018-Feb-16 04:30N 17°01' W 061°46'0 0.0
2018-Feb-16 04:00N 17°01' W 061°46'0 0.0
2018-Feb-16 03:30N 17°01' W 061°46'0 0.0
2018-Feb-16 03:01N 17°01' W 061°46'0 0.0
2018-Feb-16 02:30N 17°01' W 061°46'0 0.0
2018-Feb-16 02:00N 17°01' W 061°46'0 0.0
2018-Feb-16 01:30N 17°01' W 061°46'0 0.0
2018-Feb-16 01:00N 17°01' W 061°46'0 0.0
2018-Feb-16 00:31N 17°01' W 061°46'0 0.0
2018-Feb-16 00:00N 17°01' W 061°46'0 0.0
2018-Feb-15 23:30N 17°01' W 061°46'0 0.0
2018-Feb-15 23:00N 17°01' W 061°46'0 0.0
2018-Feb-15 22:31N 17°01' W 061°46'0 0.0
2018-Feb-15 22:00N 17°01' W 061°46'0 0.0
2018-Feb-15 21:30N 17°01' W 061°46'0 0.0
2018-Feb-15 21:01N 17°01' W 061°46'0 0.0
2018-Feb-15 20:30N 17°01' W 061°46'0 0.0
2018-Feb-15 20:00N 17°01' W 061°46'0 0.0
2018-Feb-15 19:30N 17°01' W 061°46'0 0.0
2018-Feb-15 19:00N 17°01' W 061°46'0 0.0
2018-Feb-15 18:30N 17°01' W 061°46'0 0.0
2018-Feb-15 18:00N 17°01' W 061°46'0 0.0
2018-Feb-15 17:30N 17°01' W 061°46'0 0.0
2018-Feb-15 17:00N 17°01' W 061°46'0 0.0
2018-Feb-15 16:30N 17°01' W 061°46'0 0.0
2018-Feb-15 16:00N 17°01' W 061°46'0 0.0
2018-Feb-15 15:30N 17°01' W 061°46'0 0.0
2018-Feb-15 15:00N 17°01' W 061°46'0 0.0
2018-Feb-15 14:30N 17°01' W 061°46'0 0.0
2018-Feb-15 14:00N 17°01' W 061°46'0 0.0
2018-Feb-15 13:30N 17°01' W 061°46'0 0.0
2018-Feb-15 13:00N 17°01' W 061°46'0 0.0
2018-Feb-15 12:30N 17°01' W 061°46'0 0.0
2018-Feb-15 12:00N 17°01' W 061°46'0 0.0
2018-Feb-15 11:30N 17°01' W 061°46'0 0.0
2018-Feb-15 11:00N 17°01' W 061°46'0 0.0
2018-Feb-15 10:30N 17°01' W 061°46'0 0.0
2018-Feb-15 10:00N 17°01' W 061°46'0 0.0
2018-Feb-15 09:30N 17°01' W 061°46'0 0.0
2018-Feb-15 09:00N 17°01' W 061°46'0 0.0
2018-Feb-15 08:30N 17°01' W 061°46'0 0.0
2018-Feb-15 08:00N 17°01' W 061°46'0 0.0
2018-Feb-15 07:30N 17°01' W 061°46'0 0.0
2018-Feb-15 07:00N 17°01' W 061°46'0 0.0
2018-Feb-15 06:24N 17°01' W 061°46'0 0.0
2018-Feb-15 06:00N 17°01' W 061°46'0 0.0
2018-Feb-15 05:30N 17°01' W 061°46'0 0.0
2018-Feb-15 05:00N 17°01' W 061°46'0 0.0
2018-Feb-15 04:18N 17°01' W 061°46'0 0.0
2018-Feb-15 04:00N 17°01' W 061°46'0 0.0
2018-Feb-15 03:30N 17°01' W 061°46'0 0.0
2018-Feb-15 03:00N 17°01' W 061°46'0 0.0
2018-Feb-15 02:30N 17°01' W 061°46'0 0.0
2018-Feb-15 02:00N 17°01' W 061°46'0 0.0
2018-Feb-15 01:30N 17°01' W 061°46'0 0.0
2018-Feb-15 01:00N 17°01' W 061°46'0 0.0
2018-Feb-15 00:30N 17°01' W 061°46'0 0.0
2018-Feb-15 00:00N 17°01' W 061°46'0 0.0
2018-Feb-14 23:30N 17°01' W 061°46'0 0.0
2018-Feb-14 23:00N 17°01' W 061°46'0 0.0
2018-Feb-14 22:30N 17°01' W 061°46'0 0.0
2018-Feb-14 22:00N 17°01' W 061°46'0 0.0
2018-Feb-14 21:30N 17°01' W 061°46'0 0.0
2018-Feb-14 21:00N 17°01' W 061°46'0 0.0
2018-Feb-14 20:30N 17°01' W 061°46'0 0.0
2018-Feb-14 20:00N 17°01' W 061°46'0 0.0
2018-Feb-14 19:30N 17°01' W 061°46'0 0.0
2018-Feb-14 19:00N 17°01' W 061°46'0 0.0
2018-Feb-14 18:30N 17°01' W 061°46'0 0.0
2018-Feb-14 18:00N 17°01' W 061°46'0 0.0
2018-Feb-14 17:30N 17°01' W 061°46'0 0.0
2018-Feb-14 17:00N 17°01' W 061°46'0 0.0
2018-Feb-14 16:30N 17°01' W 061°46'0 0.0
2018-Feb-14 16:00N 17°01' W 061°46'0 0.0
2018-Feb-14 15:30N 17°01' W 061°46'0 0.0
2018-Feb-14 15:00N 17°01' W 061°46'0 0.0
2018-Feb-14 14:30N 17°01' W 061°46'0 0.0
2018-Feb-14 14:00N 17°01' W 061°46'0 0.0
2018-Feb-14 13:30N 17°01' W 061°46'0 0.0
2018-Feb-14 13:00N 17°01' W 061°46'0 0.0
2018-Feb-14 12:30N 17°01' W 061°46'0 0.0
2018-Feb-14 12:00N 17°01' W 061°46'0 0.0
2018-Feb-14 11:30N 17°01' W 061°46'0 0.0
2018-Feb-14 10:57N 17°01' W 061°46'0 0.0
2018-Feb-14 10:27N 17°01' W 061°46'0 0.0
2018-Feb-14 10:00N 17°01' W 061°46'0 0.0
2018-Feb-14 09:30N 17°01' W 061°46'0 0.0
2018-Feb-14 09:00N 17°01' W 061°46'0 0.0
2018-Feb-14 08:30N 17°01' W 061°46'0 0.0
2018-Feb-14 08:00N 17°01' W 061°46'0 0.0
2018-Feb-14 07:30N 17°01' W 061°46'0 0.0
2018-Feb-14 07:00N 17°01' W 061°46'0 0.0
2018-Feb-14 06:30N 17°01' W 061°46'0 0.0
2018-Feb-14 06:00N 17°01' W 061°46'0 0.0
2018-Feb-14 05:30N 17°01' W 061°46'0 0.0
2018-Feb-14 05:00N 17°01' W 061°46'0 0.0
2018-Feb-14 04:27N 17°01' W 061°46'0 0.0
2018-Feb-14 04:00N 17°01' W 061°46'0 0.0
2018-Feb-14 03:30N 17°01' W 061°46'0 0.0
2018-Feb-14 03:00N 17°01' W 061°46'0 0.0
2018-Feb-14 02:27N 17°01' W 061°46'0 0.0
2018-Feb-14 02:00N 17°01' W 061°46'0 0.0
2018-Feb-14 01:30N 17°01' W 061°46'0 0.0
2018-Feb-14 01:00N 17°01' W 061°46'0 0.0
2018-Feb-14 00:30N 17°01' W 061°46'0 0.0
2018-Feb-14 00:00N 17°01' W 061°46'0 0.0
2018-Feb-13 23:30N 17°01' W 061°46'0 0.0
2018-Feb-13 23:00N 17°01' W 061°46'0 0.0
2018-Feb-13 22:30N 17°01' W 061°46'0 0.0
2018-Feb-13 22:00N 17°01' W 061°46'0 0.0
2018-Feb-13 21:30N 17°01' W 061°46'0 0.0
2018-Feb-13 21:00N 17°01' W 061°46'  

Dump ship's entire track history